createdAt,value
2023-03-07T00:00:58.250Z,48.28
2023-03-07T00:06:07.222Z,53.17
2023-03-07T00:11:14.044Z,45.10
2023-03-07T00:16:23.285Z,62.05
2023-03-07T00:21:37.017Z,52.40
2023-03-07T00:26:43.097Z,48.70
2023-03-07T00:36:57.536Z,52.22
2023-03-07T00:42:04.200Z,59.97
2023-03-07T00:47:10.892Z,58.67
2023-03-07T00:52:18.391Z,62.75
2023-03-07T00:57:26.021Z,53.67
2023-03-07T01:02:32.385Z,62.20
2023-03-07T01:17:56.390Z,61.15
2023-03-07T01:23:03.761Z,60.50
2023-03-07T01:28:12.406Z,66.13
2023-03-07T01:33:18.763Z,62.97
2023-03-07T01:43:40.517Z,73.95
2023-03-07T01:49:33.196Z,66.13
2023-03-07T01:54:50.495Z,70.70
2023-03-07T02:00:07.814Z,64.32
2023-03-07T02:05:28.424Z,62.40
2023-03-07T02:10:37.577Z,64.32
2023-03-07T02:15:54.444Z,65.35
2023-03-07T02:21:07.314Z,59.17
2023-03-07T02:26:24.707Z,55.53
2023-03-07T02:31:32.208Z,68.18
2023-03-07T02:36:39.861Z,58.17
2023-03-07T02:42:09.778Z,51.75
2023-03-07T02:47:24.323Z,53.45
2023-03-07T02:52:31.615Z,54.67
2023-03-07T02:57:38.821Z,56.83
2023-03-07T03:02:45.922Z,53.25
2023-03-07T03:07:52.204Z,41.92
2023-03-07T03:12:58.974Z,54.03
2023-03-07T03:18:06.077Z,37.45
2023-03-07T03:23:12.576Z,29.63
2023-03-07T03:28:19.145Z,41.33
2023-03-07T03:33:27.740Z,52.00
2023-03-07T03:38:35.294Z,50.83
2023-03-07T03:43:41.859Z,50.20
2023-03-07T03:48:58.978Z,53.08
2023-03-07T03:54:06.731Z,38.88
2023-03-07T03:59:14.965Z,32.75
2023-03-07T04:04:22.145Z,35.17
2023-03-07T04:09:34.980Z,57.25
2023-03-07T04:14:42.418Z,49.47
2023-03-07T04:24:54.482Z,60.15
2023-03-07T04:30:01.347Z,44.95
2023-03-07T04:35:11.735Z,62.47
2023-03-07T04:40:18.604Z,55.28
2023-03-07T04:45:24.830Z,60.75
2023-03-07T04:50:32.464Z,58.15
2023-03-07T04:55:39.478Z,48.30
2023-03-07T05:00:47.797Z,43.35
2023-03-07T05:05:55.052Z,61.38
2023-03-07T05:11:01.654Z,42.85
2023-03-07T05:16:09.360Z,51.75
2023-03-07T05:21:16.211Z,60.47
2023-03-07T05:26:22.647Z,39.00
2023-03-07T05:31:29.580Z,52.28
2023-03-07T05:36:36.541Z,56.25
2023-03-07T05:41:43.303Z,37.40
2023-03-07T05:46:50.780Z,44.15
2023-03-07T05:51:57.015Z,49.33
2023-03-07T05:57:06.723Z,42.70
2023-03-07T06:02:13.397Z,47.00
2023-03-07T06:07:20.215Z,55.65
2023-03-07T06:12:27.358Z,34.95
2023-03-07T06:17:33.982Z,37.80
2023-03-07T06:22:40.833Z,39.22
2023-03-07T06:27:47.561Z,37.60
2023-03-07T06:32:53.727Z,47.20
2023-03-07T06:38:00.578Z,55.63
2023-03-07T06:43:07.587Z,40.47
2023-03-07T06:48:14.119Z,42.08
2023-03-07T06:53:21.368Z,62.25
2023-03-07T06:58:28.567Z,51.15
2023-03-07T07:03:35.143Z,60.38
2023-03-07T07:08:41.420Z,57.65
2023-03-07T07:13:49.298Z,49.47
2023-03-07T07:18:57.895Z,40.90
2023-03-07T07:24:04.865Z,39.35
2023-03-07T07:29:22.976Z,32.80
2023-03-07T07:34:31.213Z,46.63
2023-03-07T07:39:37.751Z,32.10
2023-03-07T07:44:52.852Z,38.38
2023-03-07T07:50:16.088Z,43.60
2023-03-07T07:55:22.632Z,38.13
2023-03-07T08:00:29.620Z,49.55
2023-03-07T08:05:35.973Z,54.65
2023-03-07T08:10:45.179Z,52.67
2023-03-07T08:15:51.559Z,53.25
2023-03-07T08:21:02.322Z,42.85
2023-03-07T08:26:11.857Z,49.60
2023-03-07T08:31:25.258Z,62.40
2023-03-07T08:36:31.761Z,58.72
2023-03-07T08:41:38.225Z,49.30
2023-03-07T08:46:45.681Z,48.15
2023-03-07T08:51:53.955Z,40.55
2023-03-07T08:57:00.503Z,53.13
2023-03-07T09:02:06.811Z,55.17
2023-03-07T09:07:13.049Z,49.88
2023-03-07T09:12:21.251Z,54.47
2023-03-07T09:17:27.724Z,56.05
2023-03-07T09:22:34.616Z,58.28
2023-03-07T09:27:41.490Z,52.15
2023-03-07T09:32:48.131Z,38.90
2023-03-07T09:37:54.524Z,58.63
2023-03-07T09:43:07.968Z,59.88
2023-03-07T09:48:27.907Z,60.85
2023-03-07T09:53:47.596Z,48.65
2023-03-07T09:59:22.431Z,47.33
2023-03-07T10:04:42.887Z,63.08
2023-03-07T10:09:49.835Z,48.55
2023-03-07T10:15:30.875Z,44.67
2023-03-07T10:20:59.821Z,57.38
2023-03-07T10:26:21.339Z,49.10
2023-03-07T10:31:41.915Z,85.97
2023-03-07T10:37:00.163Z,62.97
2023-03-07T10:42:20.053Z,69.07
2023-03-07T10:47:30.474Z,61.15
2023-03-07T10:53:04.685Z,74.07
2023-03-07T10:58:28.890Z,84.57
2023-03-07T11:03:58.581Z,152.70
2023-03-07T11:09:30.479Z,162.15
2023-03-07T11:15:20.513Z,191.40
2023-03-07T11:20:49.036Z,164.63
2023-03-07T11:25:57.962Z,262.20
2023-03-07T11:31:23.701Z,194.40
2023-03-07T11:43:17.009Z,340.73
2023-03-07T11:48:55.164Z,85.13
2023-03-07T11:54:09.143Z,203.30
2023-03-07T11:59:41.956Z,166.30
2023-03-07T12:04:55.069Z,153.52
2023-03-07T12:11:15.097Z,245.30
2023-03-07T12:16:42.753Z,132.75
2023-03-07T12:21:52.988Z,212.50
2023-03-07T12:33:47.179Z,141.68
2023-03-07T12:39:18.400Z,87.97
2023-03-07T12:44:48.308Z,117.82
2023-03-07T12:50:17.539Z,146.20
2023-03-07T12:55:32.674Z,119.85
2023-03-07T13:00:49.003Z,114.50
2023-03-07T13:17:02.386Z,102.07
2023-03-07T13:22:19.581Z,94.43
2023-03-07T13:27:57.535Z,99.45
2023-03-07T13:34:19.777Z,104.80
2023-03-07T13:40:06.792Z,93.40
2023-03-07T13:45:59.863Z,84.22
2023-03-07T13:51:20.162Z,79.72
2023-03-07T13:57:35.806Z,88.25
2023-03-07T14:02:59.017Z,88.20
2023-03-07T14:08:33.027Z,79.22
2023-03-07T14:14:28.796Z,80.07
2023-03-07T14:20:00.519Z,81.40
2023-03-07T14:25:16.300Z,77.90
2023-03-07T14:30:32.288Z,86.47
2023-03-07T14:35:55.725Z,83.43
2023-03-07T14:41:27.487Z,87.70
2023-03-07T14:53:30.834Z,73.30
2023-03-07T15:05:20.815Z,73.18
2023-03-07T15:17:25.257Z,70.15
2023-03-07T15:22:41.839Z,72.38
2023-03-07T15:27:49.897Z,62.78
2023-03-07T15:33:18.721Z,70.28
2023-03-07T15:38:28.059Z,73.45
2023-03-07T15:43:38.056Z,58.65
2023-03-07T15:48:44.936Z,64.80
2023-03-07T15:54:23.889Z,60.28
2023-03-07T16:05:35.330Z,59.05
2023-03-07T16:17:03.600Z,67.53
2023-03-07T16:22:23.382Z,59.08
2023-03-07T16:27:30.548Z,54.60
2023-03-07T16:32:43.573Z,71.25
2023-03-07T16:38:24.937Z,70.28
2023-03-07T16:43:46.160Z,54.30
2023-03-07T16:48:54.326Z,71.55
2023-03-07T16:54:01.684Z,49.20
2023-03-07T16:59:10.270Z,55.92
2023-03-07T17:04:17.403Z,66.47
2023-03-07T17:09:24.704Z,70.85
2023-03-07T17:14:31.670Z,68.45
2023-03-07T17:19:54.140Z,40.17
2023-03-07T17:25:11.016Z,58.33
2023-03-07T17:30:29.064Z,58.75
2023-03-07T17:35:41.061Z,62.92
2023-03-07T17:40:47.118Z,66.70
2023-03-07T17:50:58.326Z,60.28
2023-03-07T17:56:15.802Z,65.75
2023-03-07T18:01:21.965Z,66.38
2023-03-07T18:06:28.974Z,66.50
2023-03-07T18:11:36.940Z,78.30
2023-03-07T18:16:45.587Z,71.82
2023-03-07T18:21:53.629Z,64.32
2023-03-07T18:27:05.067Z,75.85
2023-03-07T18:32:11.109Z,60.03
2023-03-07T18:37:17.980Z,76.97
2023-03-07T18:42:24.501Z,65.47
2023-03-07T18:47:31.100Z,61.33
2023-03-07T18:52:37.654Z,66.13
2023-03-07T18:57:44.435Z,80.68
2023-03-07T19:02:50.873Z,76.35
2023-03-07T19:07:57.485Z,70.53
2023-03-07T19:13:03.863Z,63.60
2023-03-07T19:18:10.776Z,67.82
2023-03-07T19:23:17.876Z,63.90
2023-03-07T19:28:24.306Z,66.03
2023-03-07T19:33:30.592Z,66.95
2023-03-07T19:38:37.547Z,61.95
2023-03-07T19:43:44.884Z,63.35
2023-03-07T19:48:51.250Z,58.50
2023-03-07T19:53:58.259Z,61.55
2023-03-07T19:59:08.267Z,61.85
2023-03-07T20:04:16.186Z,62.40
2023-03-07T20:09:22.583Z,61.35
2023-03-07T20:14:29.147Z,57.75
2023-03-07T20:19:35.406Z,54.17
2023-03-07T20:24:41.611Z,69.47
2023-03-07T20:29:47.633Z,58.20
2023-03-07T20:34:55.352Z,67.00
2023-03-07T20:40:04.740Z,58.60
2023-03-07T20:45:12.018Z,62.90
2023-03-07T20:50:18.689Z,57.03
2023-03-07T20:55:24.995Z,71.82
2023-03-07T21:00:34.083Z,63.45
2023-03-07T21:05:40.749Z,58.08
2023-03-07T21:10:47.002Z,70.05
2023-03-07T21:21:09.469Z,58.85
2023-03-07T21:26:18.259Z,60.20
2023-03-07T21:31:27.034Z,66.28
2023-03-07T21:43:42.768Z,52.90
2023-03-07T21:48:49.090Z,57.05
2023-03-07T22:05:49.406Z,59.75
2023-03-07T22:11:03.205Z,54.05
2023-03-07T22:16:13.931Z,56.17
2023-03-07T22:21:20.338Z,55.30
2023-03-07T22:26:27.171Z,49.17
2023-03-07T22:31:33.809Z,53.88
2023-03-07T22:36:40.073Z,61.63
2023-03-07T22:41:46.788Z,55.38
2023-03-07T22:46:53.569Z,55.88
2023-03-07T22:52:04.088Z,56.80
2023-03-07T22:57:10.298Z,60.33
2023-03-07T23:02:17.007Z,51.95
2023-03-07T23:07:23.122Z,52.35
2023-03-07T23:17:34.920Z,50.95
2023-03-07T23:22:42.589Z,51.85
2023-03-07T23:27:48.757Z,48.58
2023-03-07T23:38:01.544Z,58.10
2023-03-07T23:43:07.673Z,50.58
2023-03-07T23:53:19.803Z,50.45
2023-03-07T23:58:26.694Z,54.80
